sensor_id;sensor_type;location;lat;lon;timestamp;temperature;humidity
32187;DHT22;18686;53.084;8.872;2023-09-08T00:02:12;16.80;99.90
32187;DHT22;18686;53.084;8.872;2023-09-08T00:04:41;16.80;99.90
32187;DHT22;18686;53.084;8.872;2023-09-08T00:07:09;16.80;99.90
32187;DHT22;18686;53.084;8.872;2023-09-08T00:09:37;16.80;99.90
32187;DHT22;18686;53.084;8.872;2023-09-08T00:12:05;16.70;99.90
32187;DHT22;18686;53.084;8.872;2023-09-08T00:14:35;16.70;99.90
32187;DHT22;18686;53.084;8.872;2023-09-08T00:17:04;16.70;99.90
32187;DHT22;18686;53.084;8.872;2023-09-08T00:19:32;16.60;99.90
32187;DHT22;18686;53.084;8.872;2023-09-08T00:22:01;16.60;99.90
32187;DHT22;18686;53.084;8.872;2023-09-08T00:24:29;16.60;99.90
32187;DHT22;18686;53.084;8.872;2023-09-08T00:26:58;16.60;99.90
32187;DHT22;18686;53.084;8.872;2023-09-08T00:29:26;16.60;99.90
32187;DHT22;18686;53.084;8.872;2023-09-08T00:31:55;16.50;99.90
32187;DHT22;18686;53.084;8.872;2023-09-08T00:34:24;16.50;99.90
32187;DHT22;18686;53.084;8.872;2023-09-08T00:36:52;16.50;99.90
32187;DHT22;18686;53.084;8.872;2023-09-08T00:39:20;16.50;99.90
32187;DHT22;18686;53.084;8.872;2023-09-08T00:41:49;16.50;99.90
32187;DHT22;18686;53.084;8.872;2023-09-08T00:44:17;16.50;99.90
32187;DHT22;18686;53.084;8.872;2023-09-08T00:46:46;16.40;99.90
32187;DHT22;18686;53.084;8.872;2023-09-08T00:49:16;16.40;99.90
32187;DHT22;18686;53.084;8.872;2023-09-08T00:51:44;16.40;99.90
32187;DHT22;18686;53.084;8.872;2023-09-08T00:54:13;16.40;99.90
32187;DHT22;18686;53.084;8.872;2023-09-08T00:56:41;16.30;99.90
32187;DHT22;18686;53.084;8.872;2023-09-08T00:59:10;16.30;99.90
32187;DHT22;18686;53.084;8.872;2023-09-08T01:01:38;16.30;99.90
32187;DHT22;18686;53.084;8.872;2023-09-08T01:04:07;16.20;99.90
32187;DHT22;18686;53.084;8.872;2023-09-08T01:06:37;16.20;99.90
32187;DHT22;18686;53.084;8.872;2023-09-08T01:09:06;16.10;99.90
32187;DHT22;18686;53.084;8.872;2023-09-08T01:11:34;16.10;99.90
32187;DHT22;18686;53.084;8.872;2023-09-08T01:14:03;16.00;99.90
32187;DHT22;18686;53.084;8.872;2023-09-08T01:16:32;16.00;99.90
32187;DHT22;18686;53.084;8.872;2023-09-08T01:19:01;16.00;99.90
32187;DHT22;18686;53.084;8.872;2023-09-08T01:21:58;16.00;99.90
32187;DHT22;18686;53.084;8.872;2023-09-08T01:27:21;15.90;99.90
32187;DHT22;18686;53.084;8.872;2023-09-08T01:29:52;15.90;99.90
32187;DHT22;18686;53.084;8.872;2023-09-08T01:32:21;15.90;99.90
32187;DHT22;18686;53.084;8.872;2023-09-08T01:34:50;15.90;99.90
32187;DHT22;18686;53.084;8.872;2023-09-08T01:37:22;15.80;99.90
32187;DHT22;18686;53.084;8.872;2023-09-08T01:39:50;15.80;99.90
32187;DHT22;18686;53.084;8.872;2023-09-08T01:42:21;15.80;99.90
32187;DHT22;18686;53.084;8.872;2023-09-08T01:44:49;15.80;99.90
32187;DHT22;18686;53.084;8.872;2023-09-08T01:47:18;15.80;99.90
32187;DHT22;18686;53.084;8.872;2023-09-08T01:49:46;15.70;99.90
32187;DHT22;18686;53.084;8.872;2023-09-08T01:52:14;15.70;99.90
32187;DHT22;18686;53.084;8.872;2023-09-08T01:54:42;15.70;99.90
32187;DHT22;18686;53.084;8.872;2023-09-08T01:57:10;15.70;99.90
32187;DHT22;18686;53.084;8.872;2023-09-08T01:59:40;15.70;99.90
32187;DHT22;18686;53.084;8.872;2023-09-08T02:02:09;15.70;99.90
32187;DHT22;18686;53.084;8.872;2023-09-08T02:04:37;15.60;99.90
32187;DHT22;18686;53.084;8.872;2023-09-08T02:07:05;15.60;99.90
32187;DHT22;18686;53.084;8.872;2023-09-08T02:09:34;15.60;99.90
32187;DHT22;18686;53.084;8.872;2023-09-08T02:12:04;15.60;99.90
32187;DHT22;18686;53.084;8.872;2023-09-08T02:14:32;15.60;99.90
32187;DHT22;18686;53.084;8.872;2023-09-08T02:17:02;15.60;99.90
32187;DHT22;18686;53.084;8.872;2023-09-08T02:19:30;15.60;99.90
32187;DHT22;18686;53.084;8.872;2023-09-08T02:21:58;15.60;99.90
32187;DHT22;18686;53.084;8.872;2023-09-08T02:24:26;15.60;99.90
32187;DHT22;18686;53.084;8.872;2023-09-08T02:26:55;15.60;99.90
32187;DHT22;18686;53.084;8.872;2023-09-08T02:29:23;15.60;99.90
32187;DHT22;18686;53.084;8.872;2023-09-08T02:31:52;15.50;99.90
32187;DHT22;18686;53.084;8.872;2023-09-08T02:34:22;15.60;99.90
32187;DHT22;18686;53.084;8.872;2023-09-08T02:36:50;15.60;99.90
32187;DHT22;18686;53.084;8.872;2023-09-08T02:39:23;15.60;99.90
32187;DHT22;18686;53.084;8.872;2023-09-08T02:41:50;15.60;99.90
32187;DHT22;18686;53.084;8.872;2023-09-08T02:44:18;15.60;99.90
32187;DHT22;18686;53.084;8.872;2023-09-08T02:46:49;15.60;99.90
32187;DHT22;18686;53.084;8.872;2023-09-08T02:49:17;15.60;99.90
32187;DHT22;18686;53.084;8.872;2023-09-08T02:51:47;15.60;99.90
32187;DHT22;18686;53.084;8.872;2023-09-08T02:54:15;15.60;99.90
32187;DHT22;18686;53.084;8.872;2023-09-08T02:56:43;15.60;99.90
32187;DHT22;18686;53.084;8.872;2023-09-08T02:59:11;15.60;99.90
32187;DHT22;18686;53.084;8.872;2023-09-08T03:01:40;15.60;99.90
32187;DHT22;18686;53.084;8.872;2023-09-08T03:04:08;15.60;99.90
32187;DHT22;18686;53.084;8.872;2023-09-08T03:06:37;15.50;99.90
32187;DHT22;18686;53.084;8.872;2023-09-08T03:09:06;15.50;99.90
32187;DHT22;18686;53.084;8.872;2023-09-08T03:11:34;15.50;99.90
32187;DHT22;18686;53.084;8.872;2023-09-08T03:14:04;15.50;99.90
32187;DHT22;18686;53.084;8.872;2023-09-08T03:16:32;15.50;99.90
32187;DHT22;18686;53.084;8.872;2023-09-08T03:19:00;15.40;99.90
32187;DHT22;18686;53.084;8.872;2023-09-08T03:21:29;15.40;99.90
32187;DHT22;18686;53.084;8.872;2023-09-08T03:23:57;15.40;99.90
32187;DHT22;18686;53.084;8.872;2023-09-08T03:26:26;15.40;99.90
32187;DHT22;18686;53.084;8.872;2023-09-08T03:28:54;15.40;99.90
32187;DHT22;18686;53.084;8.872;2023-09-08T03:31:23;15.40;99.90
32187;DHT22;18686;53.084;8.872;2023-09-08T03:33:52;15.40;99.90
32187;DHT22;18686;53.084;8.872;2023-09-08T03:36:20;15.40;99.90
32187;DHT22;18686;53.084;8.872;2023-09-08T03:38:48;15.40;99.90
32187;DHT22;18686;53.084;8.872;2023-09-08T03:41:17;15.40;99.90
32187;DHT22;18686;53.084;8.872;2023-09-08T03:43:47;15.40;99.90
32187;DHT22;18686;53.084;8.872;2023-09-08T03:46:16;15.50;99.90
32187;DHT22;18686;53.084;8.872;2023-09-08T03:48:44;15.50;99.90
32187;DHT22;18686;53.084;8.872;2023-09-08T03:51:12;15.60;99.90
32187;DHT22;18686;53.084;8.872;2023-09-08T03:53:40;15.60;99.90
32187;DHT22;18686;53.084;8.872;2023-09-08T03:56:09;15.60;99.90
32187;DHT22;18686;53.084;8.872;2023-09-08T03:58:37;15.70;99.90
32187;DHT22;18686;53.084;8.872;2023-09-08T04:01:06;15.70;99.90
32187;DHT22;18686;53.084;8.872;2023-09-08T04:03:35;15.80;99.90
32187;DHT22;18686;53.084;8.872;2023-09-08T04:06:04;15.90;99.90
32187;DHT22;18686;53.084;8.872;2023-09-08T04:08:32;15.90;99.90
32187;DHT22;18686;53.084;8.872;2023-09-08T04:11:00;15.90;99.90
32187;DHT22;18686;53.084;8.872;2023-09-08T04:13:29;16.00;99.90
32187;DHT22;18686;53.084;8.872;2023-09-08T04:15:57;16.00;99.90
32187;DHT22;18686;53.084;8.872;2023-09-08T04:18:27;16.00;99.90
32187;DHT22;18686;53.084;8.872;2023-09-08T04:20:55;16.00;99.90
32187;DHT22;18686;53.084;8.872;2023-09-08T04:23:23;16.00;99.90
32187;DHT22;18686;53.084;8.872;2023-09-08T04:25:51;16.10;99.90
32187;DHT22;18686;53.084;8.872;2023-09-08T04:28:20;16.00;99.90
32187;DHT22;18686;53.084;8.872;2023-09-08T04:30:49;16.00;99.90
32187;DHT22;18686;53.084;8.872;2023-09-08T04:33:17;16.10;99.90
32187;DHT22;18686;53.084;8.872;2023-09-08T04:35:47;16.00;99.90
32187;DHT22;18686;53.084;8.872;2023-09-08T04:38:15;16.00;99.90
32187;DHT22;18686;53.084;8.872;2023-09-08T04:40:45;16.00;99.90
32187;DHT22;18686;53.084;8.872;2023-09-08T04:43:14;16.10;99.90
32187;DHT22;18686;53.084;8.872;2023-09-08T04:45:43;16.10;99.90
32187;DHT22;18686;53.084;8.872;2023-09-08T04:48:11;16.10;99.90
32187;DHT22;18686;53.084;8.872;2023-09-08T04:50:40;16.20;99.90
32187;DHT22;18686;53.084;8.872;2023-09-08T04:53:09;16.20;99.90
32187;DHT22;18686;53.084;8.872;2023-09-08T04:55:38;16.30;99.90
32187;DHT22;18686;53.084;8.872;2023-09-08T04:58:06;16.40;99.90
32187;DHT22;18686;53.084;8.872;2023-09-08T05:00:34;16.40;99.90
32187;DHT22;18686;53.084;8.872;2023-09-08T05:03:06;16.50;99.90
32187;DHT22;18686;53.084;8.872;2023-09-08T05:05:34;16.60;99.90
32187;DHT22;18686;53.084;8.872;2023-09-08T05:08:03;16.70;99.90
32187;DHT22;18686;53.084;8.872;2023-09-08T05:10:33;16.70;99.90
32187;DHT22;18686;53.084;8.872;2023-09-08T05:13:01;16.80;99.90
32187;DHT22;18686;53.084;8.872;2023-09-08T05:15:36;16.80;99.90
32187;DHT22;18686;53.084;8.872;2023-09-08T05:18:05;16.80;99.90
32187;DHT22;18686;53.084;8.872;2023-09-08T05:20:33;16.70;99.90
32187;DHT22;18686;53.084;8.872;2023-09-08T05:23:01;16.70;99.90
32187;DHT22;18686;53.084;8.872;2023-09-08T05:25:30;16.80;99.90
32187;DHT22;18686;53.084;8.872;2023-09-08T05:27:59;16.80;99.90
32187;DHT22;18686;53.084;8.872;2023-09-08T05:30:29;16.80;99.90
32187;DHT22;18686;53.084;8.872;2023-09-08T05:32:57;16.80;99.90
32187;DHT22;18686;53.084;8.872;2023-09-08T05:35:26;16.80;99.90
32187;DHT22;18686;53.084;8.872;2023-09-08T05:37:54;16.80;99.90
32187;DHT22;18686;53.084;8.872;2023-09-08T05:40:23;16.80;99.90
32187;DHT22;18686;53.084;8.872;2023-09-08T05:42:53;16.90;99.90
32187;DHT22;18686;53.084;8.872;2023-09-08T05:45:23;16.90;99.90
32187;DHT22;18686;53.084;8.872;2023-09-08T05:47:52;16.90;99.90
32187;DHT22;18686;53.084;8.872;2023-09-08T05:50:21;17.00;99.90
32187;DHT22;18686;53.084;8.872;2023-09-08T05:52:51;17.10;99.90
32187;DHT22;18686;53.084;8.872;2023-09-08T05:55:19;17.10;99.90
32187;DHT22;18686;53.084;8.872;2023-09-08T05:57:48;17.10;99.90
32187;DHT22;18686;53.084;8.872;2023-09-08T06:00:17;17.20;99.90
32187;DHT22;18686;53.084;8.872;2023-09-08T06:02:50;17.30;99.90
32187;DHT22;18686;53.084;8.872;2023-09-08T06:05:20;17.40;99.90
32187;DHT22;18686;53.084;8.872;2023-09-08T06:07:48;17.40;99.90
32187;DHT22;18686;53.084;8.872;2023-09-08T06:10:33;17.50;99.90
32187;DHT22;18686;53.084;8.872;2023-09-08T06:13:01;17.50;99.90
32187;DHT22;18686;53.084;8.872;2023-09-08T06:15:30;17.50;99.90
32187;DHT22;18686;53.084;8.872;2023-09-08T06:18:00;17.60;99.90
32187;DHT22;18686;53.084;8.872;2023-09-08T06:20:29;17.70;99.90
32187;DHT22;18686;53.084;8.872;2023-09-08T06:23:00;17.80;99.90
32187;DHT22;18686;53.084;8.872;2023-09-08T06:25:29;17.90;99.90
32187;DHT22;18686;53.084;8.872;2023-09-08T06:27:58;18.00;99.90
32187;DHT22;18686;53.084;8.872;2023-09-08T06:30:26;18.10;99.90
32187;DHT22;18686;53.084;8.872;2023-09-08T06:32:55;18.20;99.90
32187;DHT22;18686;53.084;8.872;2023-09-08T06:35:26;18.30;99.90
32187;DHT22;18686;53.084;8.872;2023-09-08T06:37:54;18.50;99.90
32187;DHT22;18686;53.084;8.872;2023-09-08T06:40:25;18.70;99.90
32187;DHT22;18686;53.084;8.872;2023-09-08T06:42:53;18.80;99.90
32187;DHT22;18686;53.084;8.872;2023-09-08T06:45:38;18.90;99.90
32187;DHT22;18686;53.084;8.872;2023-09-08T06:48:07;19.10;99.90
32187;DHT22;18686;53.084;8.872;2023-09-08T06:50:37;19.30;99.90
32187;DHT22;18686;53.084;8.872;2023-09-08T06:53:05;19.50;99.90
32187;DHT22;18686;53.084;8.872;2023-09-08T06:55:33;19.80;99.90
32187;DHT22;18686;53.084;8.872;2023-09-08T06:58:01;20.10;99.90
32187;DHT22;18686;53.084;8.872;2023-09-08T07:00:30;20.30;99.90
32187;DHT22;18686;53.084;8.872;2023-09-08T07:02:58;20.60;99.90
32187;DHT22;18686;53.084;8.872;2023-09-08T07:05:26;20.90;99.90
32187;DHT22;18686;53.084;8.872;2023-09-08T07:07:57;21.20;99.90
32187;DHT22;18686;53.084;8.872;2023-09-08T07:10:25;21.50;99.90
32187;DHT22;18686;53.084;8.872;2023-09-08T07:12:53;21.80;99.90
32187;DHT22;18686;53.084;8.872;2023-09-08T07:15:22;22.10;99.90
32187;DHT22;18686;53.084;8.872;2023-09-08T07:17:50;22.50;99.30
32187;DHT22;18686;53.084;8.872;2023-09-08T07:20:19;22.90;97.90
32187;DHT22;18686;53.084;8.872;2023-09-08T07:22:47;23.20;96.30
32187;DHT22;18686;53.084;8.872;2023-09-08T07:25:17;23.60;95.40
32187;DHT22;18686;53.084;8.872;2023-09-08T07:27:47;23.90;94.30
32187;DHT22;18686;53.084;8.872;2023-09-08T07:30:21;24.20;91.50
32187;DHT22;18686;53.084;8.872;2023-09-08T07:32:49;24.40;87.40
32187;DHT22;18686;53.084;8.872;2023-09-08T07:35:18;24.60;86.00
32187;DHT22;18686;53.084;8.872;2023-09-08T07:37:47;24.70;85.10
32187;DHT22;18686;53.084;8.872;2023-09-08T07:40:17;24.80;82.60
32187;DHT22;18686;53.084;8.872;2023-09-08T07:42:45;25.00;80.60
32187;DHT22;18686;53.084;8.872;2023-09-08T07:45:13;25.20;79.00
32187;DHT22;18686;53.084;8.872;2023-09-08T07:47:41;25.30;77.30
32187;DHT22;18686;53.084;8.872;2023-09-08T07:50:18;25.50;75.50
32187;DHT22;18686;53.084;8.872;2023-09-08T07:52:47;25.70;73.60
32187;DHT22;18686;53.084;8.872;2023-09-08T07:55:17;25.90;72.70
32187;DHT22;18686;53.084;8.872;2023-09-08T07:57:46;26.10;71.20
32187;DHT22;18686;53.084;8.872;2023-09-08T08:00:15;26.30;70.30
32187;DHT22;18686;53.084;8.872;2023-09-08T08:02:48;26.60;68.40
32187;DHT22;18686;53.084;8.872;2023-09-08T08:05:17;26.80;67.00
32187;DHT22;18686;53.084;8.872;2023-09-08T08:07:45;26.90;65.80
32187;DHT22;18686;53.084;8.872;2023-09-08T08:10:13;27.00;65.40
32187;DHT22;18686;53.084;8.872;2023-09-08T08:12:43;27.10;65.30
32187;DHT22;18686;53.084;8.872;2023-09-08T08:15:12;27.30;63.40
32187;DHT22;18686;53.084;8.872;2023-09-08T08:17:40;27.50;61.40
32187;DHT22;18686;53.084;8.872;2023-09-08T08:20:11;27.60;60.50
32187;DHT22;18686;53.084;8.872;2023-09-08T08:22:45;27.50;60.50
32187;DHT22;18686;53.084;8.872;2023-09-08T08:25:14;27.50;61.60
32187;DHT22;18686;53.084;8.872;2023-09-08T08:27:44;27.70;61.40
32187;DHT22;18686;53.084;8.872;2023-09-08T08:30:12;27.90;60.60
32187;DHT22;18686;53.084;8.872;2023-09-08T08:32:41;28.10;60.60
32187;DHT22;18686;53.084;8.872;2023-09-08T08:35:09;28.20;59.60
32187;DHT22;18686;53.084;8.872;2023-09-08T08:37:40;28.60;59.00
32187;DHT22;18686;53.084;8.872;2023-09-08T08:40:10;29.20;56.80
32187;DHT22;18686;53.084;8.872;2023-09-08T08:42:40;29.50;56.20
32187;DHT22;18686;53.084;8.872;2023-09-08T08:45:10;29.70;54.90
32187;DHT22;18686;53.084;8.872;2023-09-08T08:47:39;30.20;54.50
32187;DHT22;18686;53.084;8.872;2023-09-08T08:50:08;30.70;52.40
32187;DHT22;18686;53.084;8.872;2023-09-08T08:52:38;31.00;51.30
32187;DHT22;18686;53.084;8.872;2023-09-08T08:55:07;31.30;51.40
32187;DHT22;18686;53.084;8.872;2023-09-08T08:57:37;31.60;49.30
32187;DHT22;18686;53.084;8.872;2023-09-08T09:00:10;31.70;49.60
32187;DHT22;18686;53.084;8.872;2023-09-08T09:02:41;32.00;48.70
32187;DHT22;18686;53.084;8.872;2023-09-08T09:05:13;32.40;47.60
32187;DHT22;18686;53.084;8.872;2023-09-08T09:07:42;33.00;46.50
32187;DHT22;18686;53.084;8.872;2023-09-08T09:10:11;33.40;45.40
32187;DHT22;18686;53.084;8.872;2023-09-08T09:12:39;33.70;44.50
32187;DHT22;18686;53.084;8.872;2023-09-08T09:15:09;33.90;44.40
32187;DHT22;18686;53.084;8.872;2023-09-08T09:17:38;34.00;43.60
32187;DHT22;18686;53.084;8.872;2023-09-08T09:20:14;33.90;43.40
32187;DHT22;18686;53.084;8.872;2023-09-08T09:22:44;33.90;43.20
32187;DHT22;18686;53.084;8.872;2023-09-08T09:25:21;34.00;43.60
32187;DHT22;18686;53.084;8.872;2023-09-08T09:27:52;34.50;41.70
32187;DHT22;18686;53.084;8.872;2023-09-08T09:30:22;34.60;41.70
32187;DHT22;18686;53.084;8.872;2023-09-08T09:32:59;34.90;41.60
32187;DHT22;18686;53.084;8.872;2023-09-08T09:35:43;35.50;40.30
32187;DHT22;18686;53.084;8.872;2023-09-08T09:38:11;35.80;39.50
32187;DHT22;18686;53.084;8.872;2023-09-08T09:40:40;35.80;40.50
32187;DHT22;18686;53.084;8.872;2023-09-08T09:43:10;36.20;40.20
32187;DHT22;18686;53.084;8.872;2023-09-08T09:45:41;36.40;40.00
32187;DHT22;18686;53.084;8.872;2023-09-08T09:48:10;36.50;39.20
32187;DHT22;18686;53.084;8.872;2023-09-08T09:50:40;36.40;39.50
32187;DHT22;18686;53.084;8.872;2023-09-08T09:53:10;36.60;38.80
32187;DHT22;18686;53.084;8.872;2023-09-08T09:55:39;36.90;38.10
32187;DHT22;18686;53.084;8.872;2023-09-08T09:58:09;37.20;38.10
32187;DHT22;18686;53.084;8.872;2023-09-08T10:00:39;37.10;37.80
32187;DHT22;18686;53.084;8.872;2023-09-08T10:03:08;36.70;37.30
32187;DHT22;18686;53.084;8.872;2023-09-08T10:05:38;36.20;38.10
32187;DHT22;18686;53.084;8.872;2023-09-08T10:08:06;36.30;39.00
32187;DHT22;18686;53.084;8.872;2023-09-08T10:10:35;36.50;39.10
32187;DHT22;18686;53.084;8.872;2023-09-08T10:13:06;37.00;38.40
32187;DHT22;18686;53.084;8.872;2023-09-08T10:15:35;37.80;37.60
32187;DHT22;18686;53.084;8.872;2023-09-08T10:18:06;38.70;36.60
32187;DHT22;18686;53.084;8.872;2023-09-08T10:20:37;40.10;34.90
32187;DHT22;18686;53.084;8.872;2023-09-08T10:23:09;42.00;33.80
32187;DHT22;18686;53.084;8.872;2023-09-08T10:25:44;43.50;32.10
32187;DHT22;18686;53.084;8.872;2023-09-08T10:28:20;44.40;30.80
32187;DHT22;18686;53.084;8.872;2023-09-08T10:30:50;45.60;29.60
32187;DHT22;18686;53.084;8.872;2023-09-08T10:33:20;45.80;28.80
32187;DHT22;18686;53.084;8.872;2023-09-08T10:35:51;46.40;28.70
32187;DHT22;18686;53.084;8.872;2023-09-08T10:38:23;47.40;28.60
32187;DHT22;18686;53.084;8.872;2023-09-08T10:40:52;48.40;27.60
32187;DHT22;18686;53.084;8.872;2023-09-08T10:43:21;49.30;27.30
32187;DHT22;18686;53.084;8.872;2023-09-08T10:45:50;50.40;26.90
32187;DHT22;18686;53.084;8.872;2023-09-08T10:48:20;51.50;26.40
32187;DHT22;18686;53.084;8.872;2023-09-08T10:50:48;52.00;26.30
32187;DHT22;18686;53.084;8.872;2023-09-08T10:53:17;51.90;25.90
32187;DHT22;18686;53.084;8.872;2023-09-08T10:55:46;51.90;25.60
32187;DHT22;18686;53.084;8.872;2023-09-08T10:58:30;51.40;25.90
32187;DHT22;18686;53.084;8.872;2023-09-08T11:01:01;51.30;25.70
32187;DHT22;18686;53.084;8.872;2023-09-08T11:03:45;52.00;25.50
32187;DHT22;18686;53.084;8.872;2023-09-08T11:06:16;52.70;25.40
32187;DHT22;18686;53.084;8.872;2023-09-08T11:08:45;52.90;24.70
32187;DHT22;18686;53.084;8.872;2023-09-08T11:11:15;52.70;24.70
32187;DHT22;18686;53.084;8.872;2023-09-08T11:13:44;52.30;24.70
32187;DHT22;18686;53.084;8.872;2023-09-08T11:16:14;52.00;25.00
32187;DHT22;18686;53.084;8.872;2023-09-08T11:24:21;51.40;25.00
32187;DHT22;18686;53.084;8.872;2023-09-08T11:26:56;51.40;25.10
32187;DHT22;18686;53.084;8.872;2023-09-08T11:29:31;51.60;25.20
32187;DHT22;18686;53.084;8.872;2023-09-08T11:32:01;51.80;24.90
32187;DHT22;18686;53.084;8.872;2023-09-08T11:34:30;51.50;25.10
32187;DHT22;18686;53.084;8.872;2023-09-08T11:36:58;51.30;25.40
32187;DHT22;18686;53.084;8.872;2023-09-08T11:39:28;51.90;25.50
32187;DHT22;18686;53.084;8.872;2023-09-08T11:41:56;51.80;25.00
32187;DHT22;18686;53.084;8.872;2023-09-08T11:44:27;52.20;25.20
32187;DHT22;18686;53.084;8.872;2023-09-08T11:46:55;53.00;24.50
32187;DHT22;18686;53.084;8.872;2023-09-08T11:49:24;53.10;24.40
32187;DHT22;18686;53.084;8.872;2023-09-08T11:51:53;52.80;24.50
32187;DHT22;18686;53.084;8.872;2023-09-08T11:54:23;52.50;24.80
32187;DHT22;18686;53.084;8.872;2023-09-08T11:56:53;53.10;24.80
32187;DHT22;18686;53.084;8.872;2023-09-08T11:59:21;52.70;24.50
32187;DHT22;18686;53.084;8.872;2023-09-08T12:01:50;53.10;24.50
32187;DHT22;18686;53.084;8.872;2023-09-08T12:04:19;53.40;24.50
32187;DHT22;18686;53.084;8.872;2023-09-08T12:06:48;53.30;24.30
32187;DHT22;18686;53.084;8.872;2023-09-08T12:09:16;53.80;24.30
32187;DHT22;18686;53.084;8.872;2023-09-08T12:11:44;53.40;24.50
32187;DHT22;18686;53.084;8.872;2023-09-08T12:14:15;53.00;24.60
32187;DHT22;18686;53.084;8.872;2023-09-08T12:16:44;53.10;24.50
32187;DHT22;18686;53.084;8.872;2023-09-08T12:19:31;53.80;24.30
32187;DHT22;18686;53.084;8.872;2023-09-08T12:22:01;53.90;24.30
32187;DHT22;18686;53.084;8.872;2023-09-08T12:24:50;53.50;23.90
32187;DHT22;18686;53.084;8.872;2023-09-08T12:27:24;53.30;24.10
32187;DHT22;18686;53.084;8.872;2023-09-08T12:29:55;53.80;24.10
32187;DHT22;18686;53.084;8.872;2023-09-08T12:32:24;54.60;23.80
32187;DHT22;18686;53.084;8.872;2023-09-08T12:34:52;54.90;23.60
32187;DHT22;18686;53.084;8.872;2023-09-08T12:37:21;55.80;23.80
32187;DHT22;18686;53.084;8.872;2023-09-08T12:39:50;56.40;23.60
32187;DHT22;18686;53.084;8.872;2023-09-08T12:42:18;57.20;23.50
32187;DHT22;18686;53.084;8.872;2023-09-08T12:44:47;57.00;23.00
32187;DHT22;18686;53.084;8.872;2023-09-08T12:47:18;56.70;23.40
32187;DHT22;18686;53.084;8.872;2023-09-08T12:49:46;56.40;22.90
32187;DHT22;18686;53.084;8.872;2023-09-08T12:52:14;56.00;23.20
32187;DHT22;18686;53.084;8.872;2023-09-08T12:54:42;56.00;23.20
32187;DHT22;18686;53.084;8.872;2023-09-08T12:57:11;56.30;23.00
32187;DHT22;18686;53.084;8.872;2023-09-08T12:59:39;56.10;23.30
32187;DHT22;18686;53.084;8.872;2023-09-08T13:02:07;56.00;23.00
32187;DHT22;18686;53.084;8.872;2023-09-08T13:04:37;56.00;23.10
32187;DHT22;18686;53.084;8.872;2023-09-08T13:07:09;56.60;23.10
32187;DHT22;18686;53.084;8.872;2023-09-08T13:09:45;56.80;22.80
32187;DHT22;18686;53.084;8.872;2023-09-08T13:12:13;56.90;22.80
32187;DHT22;18686;53.084;8.872;2023-09-08T13:17:23;57.90;22.30
32187;DHT22;18686;53.084;8.872;2023-09-08T13:19:52;56.90;22.40
32187;DHT22;18686;53.084;8.872;2023-09-08T13:22:21;56.10;22.80
32187;DHT22;18686;53.084;8.872;2023-09-08T13:24:50;56.80;22.80
32187;DHT22;18686;53.084;8.872;2023-09-08T13:27:18;57.40;22.70
32187;DHT22;18686;53.084;8.872;2023-09-08T13:29:46;56.70;22.70
32187;DHT22;18686;53.084;8.872;2023-09-08T13:32:15;56.90;22.80
32187;DHT22;18686;53.084;8.872;2023-09-08T13:34:44;57.20;22.70
32187;DHT22;18686;53.084;8.872;2023-09-08T13:37:14;56.60;22.50
32187;DHT22;18686;53.084;8.872;2023-09-08T13:39:42;55.90;22.40
32187;DHT22;18686;53.084;8.872;2023-09-08T13:42:11;55.40;22.70
32187;DHT22;18686;53.084;8.872;2023-09-08T13:44:39;54.40;22.80
32187;DHT22;18686;53.084;8.872;2023-09-08T13:47:08;53.30;23.60
32187;DHT22;18686;53.084;8.872;2023-09-08T13:49:44;51.80;23.80
32187;DHT22;18686;53.084;8.872;2023-09-08T13:52:19;49.60;24.60
32187;DHT22;18686;53.084;8.872;2023-09-08T13:58:04;44.10;26.80
32187;DHT22;18686;53.084;8.872;2023-09-08T14:00:36;41.60;28.10
32187;DHT22;18686;53.084;8.872;2023-09-08T14:03:11;39.90;28.90
32187;DHT22;18686;53.084;8.872;2023-09-08T14:05:44;38.60;29.80
32187;DHT22;18686;53.084;8.872;2023-09-08T14:08:21;37.50;30.90
32187;DHT22;18686;53.084;8.872;2023-09-08T14:10:52;36.20;32.40
32187;DHT22;18686;53.084;8.872;2023-09-08T14:13:35;35.20;33.90
32187;DHT22;18686;53.084;8.872;2023-09-08T14:16:04;34.40;35.80
32187;DHT22;18686;53.084;8.872;2023-09-08T14:18:33;33.70;35.20
32187;DHT22;18686;53.084;8.872;2023-09-08T14:21:01;33.20;36.00
32187;DHT22;18686;53.084;8.872;2023-09-08T14:23:32;32.70;36.20
32187;DHT22;18686;53.084;8.872;2023-09-08T14:26:02;32.40;36.90
32187;DHT22;18686;53.084;8.872;2023-09-08T14:28:30;32.10;37.20
32187;DHT22;18686;53.084;8.872;2023-09-08T14:31:00;31.80;38.50
32187;DHT22;18686;53.084;8.872;2023-09-08T14:33:29;31.60;38.10
32187;DHT22;18686;53.084;8.872;2023-09-08T14:35:57;31.40;38.70
32187;DHT22;18686;53.084;8.872;2023-09-08T14:38:26;31.20;39.20
32187;DHT22;18686;53.084;8.872;2023-09-08T14:40:56;31.10;39.40
32187;DHT22;18686;53.084;8.872;2023-09-08T14:43:26;30.90;39.70
32187;DHT22;18686;53.084;8.872;2023-09-08T14:45:55;30.70;39.90
32187;DHT22;18686;53.084;8.872;2023-09-08T14:48:24;30.60;40.20
32187;DHT22;18686;53.084;8.872;2023-09-08T14:50:52;30.50;40.80
32187;DHT22;18686;53.084;8.872;2023-09-08T14:53:22;30.30;40.60
32187;DHT22;18686;53.084;8.872;2023-09-08T14:55:50;30.20;40.50
32187;DHT22;18686;53.084;8.872;2023-09-08T14:58:24;30.10;40.90
32187;DHT22;18686;53.084;8.872;2023-09-08T15:00:52;30.10;41.40
32187;DHT22;18686;53.084;8.872;2023-09-08T15:03:21;30.00;41.90
32187;DHT22;18686;53.084;8.872;2023-09-08T15:05:49;29.90;41.50
32187;DHT22;18686;53.084;8.872;2023-09-08T15:08:17;29.90;41.50
32187;DHT22;18686;53.084;8.872;2023-09-08T15:10:45;29.80;41.70
32187;DHT22;18686;53.084;8.872;2023-09-08T15:13:13;29.70;41.70
32187;DHT22;18686;53.084;8.872;2023-09-08T15:15:43;29.60;42.40
32187;DHT22;18686;53.084;8.872;2023-09-08T15:18:11;29.50;42.30
32187;DHT22;18686;53.084;8.872;2023-09-08T15:20:40;29.50;42.40
32187;DHT22;18686;53.084;8.872;2023-09-08T15:23:08;29.40;43.20
32187;DHT22;18686;53.084;8.872;2023-09-08T15:25:36;29.30;43.10
32187;DHT22;18686;53.084;8.872;2023-09-08T15:28:05;29.20;43.20
32187;DHT22;18686;53.084;8.872;2023-09-08T15:30:33;29.20;43.20
32187;DHT22;18686;53.084;8.872;2023-09-08T15:33:04;29.20;43.80
32187;DHT22;18686;53.084;8.872;2023-09-08T15:35:33;29.10;43.60
32187;DHT22;18686;53.084;8.872;2023-09-08T15:38:02;29.00;43.50
32187;DHT22;18686;53.084;8.872;2023-09-08T15:40:30;29.00;43.20
32187;DHT22;18686;53.084;8.872;2023-09-08T15:42:58;28.90;44.40
32187;DHT22;18686;53.084;8.872;2023-09-08T15:45:27;28.80;44.40
32187;DHT22;18686;53.084;8.872;2023-09-08T15:47:55;28.80;44.60
32187;DHT22;18686;53.084;8.872;2023-09-08T15:50:24;28.70;44.60
32187;DHT22;18686;53.084;8.872;2023-09-08T15:52:53;28.60;44.30
32187;DHT22;18686;53.084;8.872;2023-09-08T15:55:22;28.60;44.80
32187;DHT22;18686;53.084;8.872;2023-09-08T15:57:50;28.60;44.90
32187;DHT22;18686;53.084;8.872;2023-09-08T16:00:19;28.50;45.00